Time;durP1;ratioP1;P1;durP2;ratioP2;P2;SDS_P1;SDS_P2;PMS_P1;PMS_P2;Temp;Humidity;BMP_temperature;BMP_pressure;BME280_temperature;BME280_humidity;BME280_pressure;Samples;Min_cycle;Max_cycle;Signal;HPM_P1;HPM_P2
2022/09/20 00:01:04;;;;;;;;;;;;;;;9.54;100.00;100798.88;5019781;28;875;-82
2022/09/20 00:03:29;;;;;;;;;;;;;;;9.56;100.00;100795.88;5019656;28;1279;-82
2022/09/20 00:05:54;;;;;;;;;;;;;;;9.58;100.00;100788.25;5019129;28;1062;-82
2022/09/20 00:08:19;;;;;;;;;;;;;;;9.59;100.00;100792.63;5020028;28;993;-82
2022/09/20 00:10:45;;;;;;;;;;;;;;;9.59;100.00;100792.63;5019880;28;683;-82
2022/09/20 00:13:11;;;;;;;;;;;;;;;9.58;100.00;100796.44;5019577;28;1895;-82
2022/09/20 00:15:43;;;;;;;;;;;;;;;9.58;100.00;100799.16;5018909;28;811;-82
2022/09/20 00:18:08;;;;;;;;;;;;;;;9.57;100.00;100794.78;5018562;28;1168;-82
2022/09/20 00:20:34;;;;;;;;;;;;;;;9.59;100.00;100803.56;5018144;28;1319;-82
2022/09/20 00:22:59;;;;;;;;;;;;;;;9.60;100.00;100807.94;5018949;28;1198;-82
2022/09/20 00:25:24;;;;;;;;;;;;;;;9.59;100.00;100804.38;5018108;28;808;-82
2022/09/20 00:27:49;;;;;;;;;;;;;;;9.58;100.00;100802.72;5019195;28;946;-82
2022/09/20 00:30:14;;;;;;;;;;;;;;;9.60;100.00;100805.19;5019909;28;1041;-82
2022/09/20 00:32:40;;;;;;;;;;;;;;;9.57;100.00;100809.28;5018153;28;1902;-83
2022/09/20 00:35:11;;;;;;;;;;;;;;;9.54;100.00;100807.06;5019528;28;1184;-82
2022/09/20 00:37:38;;;;;;;;;;;;;;;9.55;100.00;100814.19;5019464;28;926;-82
2022/09/20 00:40:04;;;;;;;;;;;;;;;9.56;100.00;100813.09;5019688;28;851;-83
2022/09/20 00:42:30;;;;;;;;;;;;;;;9.53;100.00;100810.09;5019616;28;1109;-82
2022/09/20 00:44:57;;;;;;;;;;;;;;;9.52;100.00;100814.72;5019327;28;1234;-82
2022/09/20 00:47:26;;;;;;;;;;;;;;;9.49;100.00;100807.88;5017946;28;1366;-82
2022/09/20 00:49:54;;;;;;;;;;;;;;;9.45;100.00;100806.75;5019703;28;950;-82
2022/09/20 00:52:20;;;;;;;;;;;;;;;9.42;100.00;100804.56;5018577;28;1965;-82
2022/09/20 00:54:45;;;;;;;;;;;;;;;9.39;100.00;100810.53;5018133;28;1439;-83
2022/09/20 00:57:11;;;;;;;;;;;;;;;9.38;100.00;100811.63;5020107;28;1001;-83
2022/09/20 00:59:38;;;;;;;;;;;;;;;9.39;100.00;100807.00;5020089;28;851;-83
2022/09/20 01:02:07;;;;;;;;;;;;;;;9.38;100.00;100808.91;5020057;28;938;-82
2022/09/20 01:04:34;;;;;;;;;;;;;;;9.31;100.00;100802.03;5019121;28;1200;-82
2022/09/20 01:07:01;;;;;;;;;;;;;;;9.30;100.00;100806.66;5019364;28;993;-82
2022/09/20 01:09:27;;;;;;;;;;;;;;;9.30;100.00;100803.13;5020638;28;1089;-83
2022/09/20 01:11:54;;;;;;;;;;;;;;;9.30;100.00;100805.84;5020158;28;832;-82
2022/09/20 01:14:21;;;;;;;;;;;;;;;9.28;100.00;100800.66;5021499;28;1955;-82
2022/09/20 01:16:46;;;;;;;;;;;;;;;9.27;100.00;100804.47;5022423;28;839;-82
2022/09/20 01:19:28;;;;;;;;;;;;;;;9.25;100.00;100803.09;5018089;28;1005;-83
2022/09/20 01:21:53;;;;;;;;;;;;;;;9.21;100.00;100800.06;5017817;28;913;-83
2022/09/20 01:24:25;;;;;;;;;;;;;;;9.19;100.00;100802.22;5016317;28;1292;-82
2022/09/20 01:26:53;;;;;;;;;;;;;;;9.15;100.00;100792.09;5016703;28;1290;-82
2022/09/20 01:29:28;;;;;;;;;;;;;;;9.14;100.00;100804.94;5017566;28;1009;-82
2022/09/20 01:31:55;;;;;;;;;;;;;;;9.08;100.00;100800.53;5016633;28;1252;-82
2022/09/20 01:34:26;;;;;;;;;;;;;;;9.08;100.00;100798.63;5017479;28;1890;-82
2022/09/20 01:37:03;;;;;;;;;;;;;;;9.11;100.00;100808.19;5017711;28;865;-82
2022/09/20 01:39:47;;;;;;;;;;;;;;;9.08;100.00;100808.72;5017830;28;1176;-83
2022/09/20 01:42:13;;;;;;;;;;;;;;;9.06;100.00;100813.63;5016389;28;1387;-83
2022/09/20 01:44:53;;;;;;;;;;;;;;;9.05;100.00;100817.44;5017663;28;1176;-82
2022/09/20 01:47:37;;;;;;;;;;;;;;;9.04;100.00;100808.41;5015860;28;1117;-82
2022/09/20 01:50:02;;;;;;;;;;;;;;;9.04;100.00;100807.59;5017695;28;578;-82
2022/09/20 01:52:46;;;;;;;;;;;;;;;9.02;100.00;100810.59;5016322;28;1949;-83
2022/09/20 01:55:30;;;;;;;;;;;;;;;8.99;100.00;100804.84;5017933;28;1267;-82
2022/09/20 01:57:55;;;;;;;;;;;;;;;8.98;100.00;100811.38;5017695;28;1009;-82
2022/09/20 02:00:25;;;;;;;;;;;;;;;8.98;100.00;100809.47;5017547;28;890;-82
2022/09/20 02:03:16;;;;;;;;;;;;;;;8.96;100.00;100805.34;5017622;28;1093;-82
2022/09/20 02:05:46;;;;;;;;;;;;;;;8.96;100.00;100803.44;5017563;28;1021;-82
2022/09/20 02:08:11;;;;;;;;;;;;;;;8.94;100.00;100805.63;5016160;28;1362;-82
2022/09/20 02:10:50;;;;;;;;;;;;;;;8.95;100.00;100807.25;5017435;28;847;-82
2022/09/20 02:13:28;;;;;;;;;;;;;;;8.99;100.00;100815.75;5017697;28;1941;-82
2022/09/20 02:15:56;;;;;;;;;;;;;;;8.96;100.00;100819.84;5017235;28;855;-82
2022/09/20 02:18:41;;;;;;;;;;;;;;;9.02;100.00;100815.22;5017642;28;808;-82
2022/09/20 02:21:19;;;;;;;;;;;;;;;9.06;100.00;100816.34;5005961;28;1376;-82
2022/09/20 02:23:50;;;;;;;;;;;;;;;9.08;100.00;100812.28;5017455;28;1176;-82
2022/09/20 02:26:34;;;;;;;;;;;;;;;9.13;100.00;100813.38;5015760;28;1150;-82
2022/09/20 02:29:05;;;;;;;;;;;;;;;9.07;100.00;100818.00;5015886;28;1350;-82
2022/09/20 02:31:42;;;;;;;;;;;;;;;9.09;100.00;100827.59;5016954;28;1004;-81
2022/09/20 02:34:26;;;;;;;;;;;;;;;9.09;100.00;100829.50;5017382;28;1964;-81
2022/09/20 02:37:03;;;;;;;;;;;;;;;9.07;100.00;100832.47;5017253;28;835;-82
2022/09/20 02:39:48;;;;;;;;;;;;;;;9.15;100.00;100839.34;5020832;28;1037;-82
2022/09/20 02:42:20;;;;;;;;;;;;;;;9.17;100.00;100841.84;5009587;28;1110;-82
2022/09/20 02:44:58;;;;;;;;;;;;;;;9.20;100.00;100841.28;5020755;28;1171;-82
2022/09/20 02:47:32;;;;;;;;;;;;;;;9.23;100.00;100838.88;5020544;28;942;-83
2022/09/20 02:50:06;;;;;;;;;;;;;;;9.23;100.00;100838.88;5021131;28;878;-82
2022/09/20 02:52:41;;;;;;;;;;;;;;;9.22;100.00;100845.41;5018968;28;1949;-82
2022/09/20 02:55:11;;;;;;;;;;;;;;;9.21;100.00;100841.03;5021343;28;1178;-82
2022/09/20 02:57:44;;;;;;;;;;;;;;;9.20;100.00;100844.84;5020676;28;1013;-82
2022/09/20 03:00:15;;;;;;;;;;;;;;;9.20;100.00;100844.84;5020669;28;1006;-82
2022/09/20 03:02:52;;;;;;;;;;;;;;;9.22;100.00;100847.31;5019095;28;1211;-82
2022/09/20 03:05:21;;;;;;;;;;;;;;;9.22;100.00;100844.59;5019729;28;1276;-82
2022/09/20 03:08:05;;;;;;;;;;;;;;;9.22;100.00;100848.16;5020055;28;878;-82
2022/09/20 03:10:38;;;;;;;;;;;;;;;9.21;100.00;100846.50;5020577;28;1010;-82
2022/09/20 03:13:09;;;;;;;;;;;;;;;9.21;100.00;100854.69;5020576;28;1955;-83
2022/09/20 03:15:49;;;;;;;;;;;;;;;9.23;100.00;100848.97;5021519;28;1076;-82
2022/09/20 03:18:16;;;;;;;;;;;;;;;9.17;100.00;100842.66;5020536;28;819;-82
2022/09/20 03:21:00;;;;;;;;;;;;;;;9.16;100.00;100849.19;5020327;28;1025;-82
2022/09/20 03:23:35;;;;;;;;;;;;;;;9.15;100.00;100853.00;5020065;28;1195;-82
2022/09/20 03:26:01;;;;;;;;;;;;;;;9.16;100.00;100854.66;5020557;28;942;-82
2022/09/20 03:28:32;;;;;;;;;;;;;;;9.14;100.00;100847.81;5018772;28;978;-82
2022/09/20 03:31:02;;;;;;;;;;;;;;;9.16;100.00;100860.13;5018390;28;1366;-82
2022/09/20 03:33:33;;;;;;;;;;;;;;;9.18;100.00;100863.44;5019583;28;1910;-82
2022/09/20 03:36:17;;;;;;;;;;;;;;;9.18;100.00;100854.41;5018030;28;1048;-82
2022/09/20 03:38:58;;;;;;;;;;;;;;;9.12;100.00;100850.78;5020505;28;1065;-82
2022/09/20 03:41:43;;;;;;;;;;;;;;;9.13;100.00;100848.88;5018994;28;1211;-82
2022/09/20 03:44:08;;;;;;;;;;;;;;;9.12;100.00;100848.06;5019974;28;1214;-82
2022/09/20 03:46:33;;;;;;;;;;;;;;;9.13;100.00;100848.88;5019741;28;812;-82
2022/09/20 03:49:17;;;;;;;;;;;;;;;9.10;100.00;100850.25;5019224;28;835;-82
2022/09/20 03:52:04;;;;;;;;;;;;;;;9.12;100.00;100845.34;5019381;28;1207;-82
2022/09/20 03:54:32;;;;;;;;;;;;;;;9.09;100.00;100854.91;5007027;28;1963;-82
2022/09/20 03:57:05;;;;;;;;;;;;;;;9.11;100.00;100849.16;5018654;28;1077;-82
2022/09/20 03:59:48;;;;;;;;;;;;;;;9.12;100.00;100850.78;5019603;28;847;-82
2022/09/20 04:02:23;;;;;;;;;;;;;;;9.12;100.00;100850.78;5017468;28;1157;-83
2022/09/20 04:04:52;;;;;;;;;;;;;;;9.12;100.00;100848.06;5018950;28;1192;-83
2022/09/20 04:07:38;;;;;;;;;;;;;;;9.14;100.00;100851.38;5017575;28;1164;-83
2022/09/20 04:10:19;;;;;;;;;;;;;;;9.13;100.00;100849.72;5018897;28;902;-82
2022/09/20 04:12:54;;;;;;;;;;;;;;;9.14;100.00;100856.00;5019120;28;1969;-82
2022/09/20 04:15:39;;;;;;;;;;;;;;;9.11;100.00;100851.88;5017774;28;1279;-83
2022/09/20 04:18:11;;;;;;;;;;;;;;;9.11;100.00;100852.69;5017494;28;1282;-83
2022/09/20 04:20:42;;;;;;;;;;;;;;;9.12;100.00;100845.34;5019559;28;827;-83
2022/09/20 04:23:20;;;;;;;;;;;;;;;9.09;100.00;100848.59;5019347;28;1149;-83
2022/09/20 04:25:47;;;;;;;;;;;;;;;9.09;100.00;100854.06;5020366;28;914;-83
2022/09/20 04:28:22;;;;;;;;;;;;;;;9.13;100.00;100859.81;5018714;28;815;-82
2022/09/20 04:30:50;;;;;;;;;;;;;;;9.15;100.00;100858.47;5018488;28;893;-82
2022/09/20 04:33:32;;;;;;;;;;;;;;;9.12;100.00;100859.00;5019074;28;1902;-84
2022/09/20 04:36:28;;;;;;;;;;;;;;;9.14;100.00;100861.47;5017689;28;1147;-84
2022/09/20 04:39:17;;;;;;;;;;;;;;;9.13;100.00;100859.81;5009612;28;1298;-83
2022/09/20 04:42:01;;;;;;;;;;;;;;;9.12;100.00;100864.44;4988701;28;1314;-84
2022/09/20 04:44:42;;;;;;;;;;;;;;;9.09;100.00;100865.00;5017402;28;1302;-84
2022/09/20 04:47:26;;;;;;;;;;;;;;;9.12;100.00;100875.38;5018216;28;1262;-84
2022/09/20 04:50:05;;;;;;;;;;;;;;;9.13;100.00;100866.09;5020497;28;839;-85
2022/09/20 04:52:48;;;;;;;;;;;;;;;9.11;100.00;100871.00;5019124;28;1902;-84
2022/09/20 04:55:36;;;;;;;;;;;;;;;9.09;100.00;100873.19;5016129;28;1302;-83
2022/09/20 04:58:04;;;;;;;;;;;;;;;9.09;100.00;100879.47;5016852;28;1226;-82
2022/09/20 05:00:53;;;;;;;;;;;;;;;9.12;100.00;100875.38;5017057;28;699;-83
2022/09/20 05:03:39;;;;;;;;;;;;;;;9.13;100.00;100885.22;5015747;28;1342;-83
2022/09/20 05:06:13;;;;;;;;;;;;;;;9.15;100.00;100885.78;5018226;28;875;-83
2022/09/20 05:08:56;;;;;;;;;;;;;;;9.15;100.00;100887.69;5017502;28;862;-82
2022/09/20 05:11:41;;;;;;;;;;;;;;;9.16;100.00;100887.44;5019545;28;945;-84
2022/09/20 05:14:19;;;;;;;;;;;;;;;9.16;100.00;100894.81;5017293;28;1951;-82
2022/09/20 05:16:47;;;;;;;;;;;;;;;9.17;100.00;100891.81;5018007;28;902;-84
2022/09/20 05:19:21;;;;;;;;;;;;;;;9.15;100.00;100891.25;5018167;28;1337;-83
2022/09/20 05:21:46;;;;;;;;;;;;;;;9.16;100.00;100900.25;5017401;28;942;-82
2022/09/20 05:24:19;;;;;;;;;;;;;;;9.14;100.00;100892.31;5018674;28;1297;-82
2022/09/20 05:27:03;;;;;;;;;;;;;;;8.98;100.00;100874.19;5017572;28;1045;-82
2022/09/20 05:29:41;;;;;;;;;;;;;;;9.11;100.00;100901.84;5017054;28;1271;-82
2022/09/20 05:32:29;;;;;;;;;;;;;;;9.13;100.00;100900.78;5016375;28;1348;-82
2022/09/20 05:35:01;;;;;;;;;;;;;;;9.15;100.00;100896.72;5016614;28;1479;-82
2022/09/20 05:37:38;;;;;;;;;;;;;;;9.18;100.00;100895.38;5016884;28;1253;-82
2022/09/20 05:40:15;;;;;;;;;;;;;;;9.17;100.00;100910.09;5016485;28;1180;-83
2022/09/20 05:42:45;;;;;;;;;;;;;;;9.16;100.00;100906.56;5016763;28;1261;-82
2022/09/20 05:45:46;;;;;;;;;;;;;;;9.19;100.00;100906.00;5018121;28;1233;-83
2022/09/20 05:48:20;;;;;;;;;;;;;;;9.18;100.00;100912.59;4995687;28;1220;-83
2022/09/20 05:50:45;;;;;;;;;;;;;;;9.20;100.00;100915.03;5014726;28;1189;-84
2022/09/20 05:53:36;;;;;;;;;;;;;;;9.20;100.00;100917.75;5019962;28;1898;-84
2022/09/20 05:56:20;;;;;;;;;;;;;;;9.19;100.00;100922.41;5017951;28;1472;-82
2022/09/20 05:59:03;;;;;;;;;;;;;;;9.18;100.00;100918.03;5019258;28;1045;-84
2022/09/20 06:01:38;;;;;;;;;;;;;;;9.18;100.00;100925.41;5017621;28;1164;-84
2022/09/20 06:04:22;;;;;;;;;;;;;;;9.20;100.00;100924.03;5017281;28;1269;-82
2022/09/20 06:06:57;;;;;;;;;;;;;;;9.21;100.00;100922.13;5018605;28;827;-82
2022/09/20 06:09:30;;;;;;;;;;;;;;;9.21;100.00;100933.06;5016177;28;826;-83
2022/09/20 06:12:15;;;;;;;;;;;;;;;9.24;100.00;100929.81;5013617;28;1309;-83
2022/09/20 06:14:53;;;;;;;;;;;;;;;9.28;100.00;100928.19;5016766;28;1969;-83
2022/09/20 06:17:26;;;;;;;;;;;;;;;9.28;100.00;100941.84;5016919;28;945;-83
2022/09/20 06:20:00;;;;;;;;;;;;;;;9.29;100.00;100938.88;5017170;28;898;-83
2022/09/20 06:22:27;;;;;;;;;;;;;;;9.30;100.00;100946.00;5017418;28;875;-83
2022/09/20 06:25:00;;;;;;;;;;;;;;;9.32;100.00;100945.72;5015993;28;1260;-83
2022/09/20 06:27:29;;;;;;;;;;;;;;;9.32;100.00;100948.47;5016342;28;1126;-83
2022/09/20 06:29:57;;;;;;;;;;;;;;;9.33;100.00;100948.22;5018572;28;808;-83
2022/09/20 06:32:22;;;;;;;;;;;;;;;9.35;100.00;100943.31;5018544;28;1021;-83
2022/09/20 06:34:47;;;;;;;;;;;;;;;9.34;100.00;100955.31;5016018;28;1894;-83
2022/09/20 06:42:53;;;;;;;;;;;;;;;9.41;100.00;100955.91;5015323;28;642;-83
2022/09/20 06:45:18;;;;;;;;;;;;;;;9.42;100.00;100957.56;5014888;28;1230;-83
2022/09/20 06:47:44;;;;;;;;;;;;;;;9.47;100.00;100957.59;5014969;28;1009;-83
2022/09/20 06:50:14;;;;;;;;;;;;;;;9.48;100.00;100961.16;5015233;28;709;-83
2022/09/20 06:52:40;;;;;;;;;;;;;;;9.46;100.00;100953.22;5015638;28;1973;-82
2022/09/20 06:55:06;;;;;;;;;;;;;;;9.45;100.00;100967.13;5013672;28;1303;-83
2022/09/20 06:57:34;;;;;;;;;;;;;;;9.43;100.00;100963.84;5014832;28;922;-83
2022/09/20 06:59:59;;;;;;;;;;;;;;;9.39;100.00;100949.88;5013449;28;1515;-83
2022/09/20 07:02:26;;;;;;;;;;;;;;;9.39;100.00;100962.72;5018406;28;1053;-83
2022/09/20 07:04:54;;;;;;;;;;;;;;;9.36;100.00;100958.59;5014661;28;1303;-83
2022/09/20 07:07:20;;;;;;;;;;;;;;;9.35;100.00;100973.38;5014565;28;950;-83
2022/09/20 07:09:45;;;;;;;;;;;;;;;9.43;100.00;100967.41;5015018;28;891;-83
2022/09/20 07:12:11;;;;;;;;;;;;;;;9.52;100.00;100973.22;5015756;28;862;-84
2022/09/20 07:14:36;;;;;;;;;;;;;;;9.53;100.00;100966.66;5016814;28;1898;-83
2022/09/20 07:17:02;;;;;;;;;;;;;;;9.52;100.00;100975.13;5013717;28;1208;-83
2022/09/20 07:19:27;;;;;;;;;;;;;;;9.52;100.00;100975.13;5013462;28;1375;-83
2022/09/20 07:21:53;;;;;;;;;;;;;;;9.50;100.00;100978.13;5015962;28;785;-83
2022/09/20 07:24:18;;;;;;;;;;;;;;;9.50;100.00;100980.84;5017717;28;1455;-83
2022/09/20 07:26:57;;;;;;;;;;;;;;;9.52;100.00;100984.16;5020773;28;925;-83
2022/09/20 07:29:24;;;;;;;;;;;;;;;9.59;100.00;100983.91;5021595;28;933;-83
2022/09/20 07:31:49;;;;;;;;;;;;;;;9.64;100.00;100987.50;5022851;28;906;-84
2022/09/20 07:34:16;;;;;;;;;;;;;;;9.66;100.00;100981.78;5026800;28;1879;-83
2022/09/20 07:36:41;;;;;;;;;;;;;;;9.74;100.00;100993.06;5012330;28;1955;-83
2022/09/20 07:39:07;;;;;;;;;;;;;;;9.81;100.00;100982.69;5017177;28;1207;-83
2022/09/20 07:41:32;;;;;;;;;;;;;;;9.94;100.00;100997.00;5017904;28;1013;-83
2022/09/20 07:44:19;;;;;;;;;;;;;;;9.99;100.00;100994.28;5017691;28;1276;-83
2022/09/20 07:46:44;;;;;;;;;;;;;;;10.06;100.00;101000.34;5018543;28;1080;-82
2022/09/20 07:49:09;;;;;;;;;;;;;;;10.10;100.00;100999.56;5018497;28;886;-83
2022/09/20 07:51:34;;;;;;;;;;;;;;;10.14;100.00;101005.31;5017496;28;1067;-83
2022/09/20 07:53:59;;;;;;;;;;;;;;;10.15;100.00;101010.53;5018347;28;1906;-83
2022/09/20 07:56:24;;;;;;;;;;;;;;;10.18;100.00;101007.31;5019272;28;985;-83
2022/09/20 07:58:50;;;;;;;;;;;;;;;10.18;100.00;101012.78;5019436;28;804;-83
2022/09/20 08:01:15;;;;;;;;;;;;;;;10.19;100.00;101014.44;5019155;28;1321;-83
2022/09/20 08:03:41;;;;;;;;;;;;;;;10.17;100.00;101013.88;5021092;28;1146;-83
2022/09/20 08:06:08;;;;;;;;;;;;;;;10.18;100.00;101020.97;5020830;28;886;-83
2022/09/20 08:08:35;;;;;;;;;;;;;;;10.18;100.00;101018.25;5019446;28;1177;-83
2022/09/20 08:11:01;;;;;;;;;;;;;;;10.16;100.00;101022.28;5021002;28;867;-83
2022/09/20 08:13:28;;;;;;;;;;;;;;;10.16;100.00;101012.19;5019197;28;1918;-83
2022/09/20 08:16:00;;;;;;;;;;;;;;;10.22;100.00;101022.09;5019169;28;1134;-83
2022/09/20 08:18:26;;;;;;;;;;;;;;;10.28;100.00;101033.06;5019697;28;1395;-83
2022/09/20 08:20:51;;;;;;;;;;;;;;;10.32;100.00;101028.69;5019209;28;1563;-83
2022/09/20 08:23:17;;;;;;;;;;;;;;;10.36;100.00;101027.09;5019219;28;1273;-84
2022/09/20 08:25:42;;;;;;;;;;;;;;;10.39;100.00;101021.06;5018768;28;937;-83
2022/09/20 08:28:07;;;;;;;;;;;;;;;10.41;100.00;101027.94;5020340;28;1083;-83
2022/09/20 08:30:32;;;;;;;;;;;;;;;10.43;100.00;101028.50;5020694;28;841;-83
2022/09/20 08:32:58;;;;;;;;;;;;;;;10.49;100.00;101029.34;5019291;28;1878;-82
2022/09/20 08:35:24;;;;;;;;;;;;;;;10.53;100.00;101027.72;5017369;28;811;-82
2022/09/20 08:37:53;;;;;;;;;;;;;;;10.53;99.20;101023.06;5018125;28;851;-83
2022/09/20 08:40:20;;;;;;;;;;;;;;;10.59;99.67;101026.63;5017455;28;837;-83
2022/09/20 08:42:45;;;;;;;;;;;;;;;10.57;99.79;101029.63;5017636;28;846;-82
2022/09/20 08:45:16;;;;;;;;;;;;;;;10.53;100.00;101033.19;5018181;28;1197;-83
2022/09/20 08:47:47;;;;;;;;;;;;;;;10.52;99.78;101031.53;5027115;28;1261;-82
2022/09/20 08:50:14;;;;;;;;;;;;;;;10.47;100.00;101029.59;5038410;28;847;-82
2022/09/20 08:52:43;;;;;;;;;;;;;;;10.46;99.53;101032.63;5038152;28;1957;-82
2022/09/20 08:55:22;;;;;;;;;;;;;;;10.54;99.56;101035.66;5038713;28;1239;-82
2022/09/20 08:57:49;;;;;;;;;;;;;;;10.64;99.82;101034.88;5036416;28;1204;-82
2022/09/20 09:00:25;;;;;;;;;;;;;;;10.67;99.63;101053.50;5038413;28;831;-82
2022/09/20 09:02:54;;;;;;;;;;;;;;;10.69;99.03;101045.84;5037977;28;807;-82
2022/09/20 09:05:36;;;;;;;;;;;;;;;10.73;98.09;101043.38;5037019;28;1379;-82
2022/09/20 09:08:15;;;;;;;;;;;;;;;10.80;97.88;101042.03;5037799;28;870;-82
2022/09/20 09:10:41;;;;;;;;;;;;;;;10.93;97.39;101055.25;5038734;28;821;-82
2022/09/20 09:13:06;;;;;;;;;;;;;;;10.97;96.81;101050.84;5038037;28;1951;-82
2022/09/20 09:15:34;;;;;;;;;;;;;;;11.02;95.86;101046.50;5038988;28;1044;-82
2022/09/20 09:17:59;;;;;;;;;;;;;;;11.10;95.73;101038.56;5038875;28;1001;-82
2022/09/20 09:20:24;;;;;;;;;;;;;;;11.17;95.36;101038.31;5036262;28;1256;-82
2022/09/20 09:23:03;;;;;;;;;;;;;;;11.17;97.11;101041.06;5039023;28;891;-82
2022/09/20 09:25:33;;;;;;;;;;;;;;;11.19;94.96;101041.59;5035927;28;1306;-82
2022/09/20 09:27:58;;;;;;;;;;;;;;;11.21;93.21;101043.00;5035658;28;1311;-82
2022/09/20 09:30:25;;;;;;;;;;;;;;;11.32;94.06;101044.63;5037619;28;847;-82
2022/09/20 09:32:51;;;;;;;;;;;;;;;11.29;92.49;101047.94;5038572;28;1890;-81
2022/09/20 09:35:30;;;;;;;;;;;;;;;11.34;93.17;101047.94;5038234;28;1178;-82
2022/09/20 09:37:57;;;;;;;;;;;;;;;11.35;93.50;101060.53;5037263;28;839;-81
2022/09/20 09:40:22;;;;;;;;;;;;;;;11.33;93.88;101053.69;5016254;28;1257;-81
2022/09/20 09:42:51;;;;;;;;;;;;;;;11.33;92.34;101059.97;5018376;28;918;-82
2022/09/20 09:45:29;;;;;;;;;;;;;;;11.37;92.39;101063.03;5016691;28;1279;-82
2022/09/20 09:47:55;;;;;;;;;;;;;;;11.40;91.91;101062.44;5015374;28;792;-82
2022/09/20 09:50:21;;;;;;;;;;;;;;;11.49;93.93;101058.09;5015131;28;1207;-82
2022/09/20 09:53:19;;;;;;;;;;;;;;;11.52;93.65;101056.72;5015965;28;1898;-82
2022/09/20 09:55:53;;;;;;;;;;;;;;;11.46;92.40;101061.38;4984594;28;1187;-83
2022/09/20 09:58:25;;;;;;;;;;;;;;;11.43;92.77;101061.91;4997127;28;1040;-82
2022/09/20 10:00:51;;;;;;;;;;;;;;;11.36;93.04;101064.94;5012125;28;1305;-82
2022/09/20 10:03:28;;;;;;;;;;;;;;;11.36;93.04;101061.38;5015903;28;1184;-81
2022/09/20 10:06:03;;;;;;;;;;;;;;;11.41;94.29;101060.53;5016077;28;1317;-82
2022/09/20 10:08:47;;;;;;;;;;;;;;;11.36;94.70;101056.72;5017320;28;1067;-82
2022/09/20 10:11:26;;;;;;;;;;;;;;;11.43;95.50;101058.34;5017362;28;1386;-82
2022/09/20 10:14:02;;;;;;;;;;;;;;;11.44;94.80;101055.34;5017288;28;1886;-82
2022/09/20 10:16:33;;;;;;;;;;;;;;;11.48;93.26;101056.47;5017112;28;808;-82
2022/09/20 10:19:06;;;;;;;;;;;;;;;11.76;93.22;101060.59;5018071;28;975;-82
2022/09/20 10:21:43;;;;;;;;;;;;;;;11.74;93.30;101060.00;5019223;28;807;-83
2022/09/20 10:24:20;;;;;;;;;;;;;;;11.59;93.81;101055.34;5018839;28;1213;-82
2022/09/20 10:26:51;;;;;;;;;;;;;;;11.54;94.77;101058.09;5017476;28;1362;-83
2022/09/20 10:29:44;;;;;;;;;;;;;;;11.54;95.68;101057.28;5018380;28;990;-83
2022/09/20 10:32:15;;;;;;;;;;;;;;;11.56;95.16;101055.09;5010170;28;1634;-83
2022/09/20 10:35:16;;;;;;;;;;;;;;;11.65;94.88;101050.72;5019068;28;1871;-83
2022/09/20 10:37:45;;;;;;;;;;;;;;;11.75;92.76;101051.53;4997145;28;1105;-83
2022/09/20 10:40:13;;;;;;;;;;;;;;;11.69;92.56;101044.38;5015614;28;1370;-83
2022/09/20 10:45:36;;;;;;;;;;;;;;;11.93;91.41;101047.41;5023136;28;654;-82
2022/09/20 10:48:08;;;;;;;;;;;;;;;11.99;88.66;101045.50;5019073;28;1204;-83
2022/09/20 10:50:56;;;;;;;;;;;;;;;12.14;88.29;101034.50;5018945;28;1458;-84
2022/09/20 10:53:38;;;;;;;;;;;;;;;12.13;88.48;101030.09;5018375;28;1890;-84
2022/09/20 10:56:10;;;;;;;;;;;;;;;12.03;88.13;101028.19;5016635;28;913;-83
2022/09/20 10:58:45;;;;;;;;;;;;;;;12.07;89.62;101032.06;5018414;28;981;-84
2022/09/20 11:01:16;;;;;;;;;;;;;;;12.25;87.78;101040.78;5020279;28;858;-83
2022/09/20 11:03:53;;;;;;;;;;;;;;;12.27;85.69;101041.31;5020381;28;1227;-83
2022/09/20 11:06:30;;;;;;;;;;;;;;;12.18;85.41;101032.00;5020257;28;1024;-84
2022/09/20 11:08:58;;;;;;;;;;;;;;;12.07;86.81;101039.47;5020163;28;1029;-84
2022/09/20 11:11:43;;;;;;;;;;;;;;;12.02;87.59;101039.44;5019284;28;1347;-83
2022/09/20 11:14:14;;;;;;;;;;;;;;;11.97;86.73;101034.81;5019187;28;1949;-83
2022/09/20 11:16:49;;;;;;;;;;;;;;;11.97;87.03;101044.97;5018733;28;1313;-84
2022/09/20 11:19:34;;;;;;;;;;;;;;;11.96;87.28;101049.63;5019680;28;1417;-83
2022/09/20 11:22:08;;;;;;;;;;;;;;;11.94;86.54;101045.50;5021989;28;1188;-84
2022/09/20 11:24:41;;;;;;;;;;;;;;;12.02;87.95;101043.03;5022217;28;1294;-83
2022/09/20 11:27:24;;;;;;;;;;;;;;;12.09;87.54;101057.28;5019339;28;1017;-83
2022/09/20 11:29:54;;;;;;;;;;;;;;;12.31;85.61;101045.97;5016692;28;1299;-81
2022/09/20 11:32:23;;;;;;;;;;;;;;;12.54;85.38;101051.94;5019017;28;1056;-83
2022/09/20 11:34:50;;;;;;;;;;;;;;;12.51;85.09;101053.31;5018441;28;1940;-83
2022/09/20 11:37:17;;;;;;;;;;;;;;;12.43;84.26;101056.63;5018199;28;854;-81
2022/09/20 11:39:42;;;;;;;;;;;;;;;12.34;84.26;101047.31;5017980;28;1319;-82
2022/09/20 11:42:13;;;;;;;;;;;;;;;12.32;84.03;101050.38;5018374;28;856;-82
2022/09/20 11:44:39;;;;;;;;;;;;;;;12.41;83.35;101047.88;5019000;28;1185;-82
2022/09/20 11:47:08;;;;;;;;;;;;;;;12.73;84.41;101050.22;5017488;28;859;-82
2022/09/20 11:49:33;;;;;;;;;;;;;;;12.86;81.01;101047.69;5017507;28;1022;-81
2022/09/20 11:52:09;;;;;;;;;;;;;;;12.97;79.28;101044.88;5017604;28;738;-83
2022/09/20 11:54:46;;;;;;;;;;;;;;;13.07;79.65;101042.91;5017460;28;1932;-82
2022/09/20 11:57:14;;;;;;;;;;;;;;;13.13;82.64;101049.19;5013526;28;1315;-82
2022/09/20 11:59:41;;;;;;;;;;;;;;;12.82;83.86;101071.34;5017052;28;1242;-83
2022/09/20 12:02:24;;;;;;;;;;;;;;;12.14;87.74;101089.38;5017259;28;1218;-83
2022/09/20 12:04:52;;;;;;;;;;;;;;;11.58;92.01;101091.25;4998685;28;1213;-83
2022/09/20 12:07:17;;;;;;;;;;;;;;;11.34;93.64;101093.69;5015516;28;1335;-83
2022/09/20 12:09:44;;;;;;;;;;;;;;;11.24;94.45;101093.66;5015938;28;1133;-83
2022/09/20 12:12:14;;;;;;;;;;;;;;;11.24;94.72;101099.97;5015498;28;1342;-82
2022/09/20 12:14:39;;;;;;;;;;;;;;;11.29;95.07;101094.53;5015255;28;1902;-83
2022/09/20 12:17:04;;;;;;;;;;;;;;;11.36;94.52;101083.28;5015178;28;1170;-83
2022/09/20 12:19:31;;;;;;;;;;;;;;;11.41;93.80;101085.22;5016662;28;1005;-83
2022/09/20 12:21:58;;;;;;;;;;;;;;;11.51;94.16;101080.56;5016647;28;1210;-83
2022/09/20 12:24:25;;;;;;;;;;;;;;;11.65;94.32;101076.19;5015725;28;1290;-83
2022/09/20 12:26:54;;;;;;;;;;;;;;;11.77;94.89;101077.88;5016317;28;891;-83
2022/09/20 12:29:22;;;;;;;;;;;;;;;11.86;96.42;101078.97;5015156;28;1215;-83
2022/09/20 12:31:49;;;;;;;;;;;;;;;11.95;97.20;101082.81;5016907;28;811;-83
2022/09/20 12:34:14;;;;;;;;;;;;;;;12.05;97.86;101078.16;5016640;28;1894;-83
2022/09/20 12:36:43;;;;;;;;;;;;;;;12.17;97.75;101085.25;5015811;28;1243;-83
2022/09/20 12:39:09;;;;;;;;;;;;;;;12.27;97.29;101086.06;5018903;28;1194;-84
2022/09/20 12:41:53;;;;;;;;;;;;;;;12.40;98.08;101079.19;5019316;28;1229;-84
2022/09/20 12:44:38;;;;;;;;;;;;;;;12.38;98.14;101073.13;5021207;28;1286;-84
2022/09/20 12:47:16;;;;;;;;;;;;;;;12.38;98.40;101073.13;5018846;28;1194;-82
2022/09/20 12:52:49;;;;;;;;;;;;;;;12.49;99.84;101072.03;5018757;28;666;-83
2022/09/20 12:55:29;;;;;;;;;;;;;;;12.66;98.83;101077.19;5016506;28;1457;-83
2022/09/20 12:57:57;;;;;;;;;;;;;;;15.85;91.81;101057.44;5016371;28;1396;-82
2022/09/20 13:00:30;;;;;;;;;;;;;;;16.66;85.69;101067.03;5014824;28;1420;-82
2022/09/20 13:02:57;;;;;;;;;;;;;;;14.67;88.61;101064.94;5016082;28;930;-81
2022/09/20 13:05:30;;;;;;;;;;;;;;;15.13;89.03;101054.97;5014815;28;1366;-83
2022/09/20 13:08:00;;;;;;;;;;;;;;;15.84;84.89;101059.38;5015597;28;893;-83
2022/09/20 13:10:29;;;;;;;;;;;;;;;14.09;88.71;101058.66;5015500;28;839;-83
2022/09/20 13:13:00;;;;;;;;;;;;;;;13.41;91.15;101065.00;5014367;28;1906;-82
2022/09/20 13:15:26;;;;;;;;;;;;;;;13.05;93.28;101064.34;5016929;28;839;-84
2022/09/20 13:17:52;;;;;;;;;;;;;;;12.90;94.21;101069.94;5016223;28;1005;-83
2022/09/20 13:20:22;;;;;;;;;;;;;;;12.91;94.81;101066.09;5014832;28;1274;-83
2022/09/20 13:22:48;;;;;;;;;;;;;;;13.19;94.80;101059.06;5015640;28;878;-83
2022/09/20 13:25:14;;;;;;;;;;;;;;;13.35;94.77;101063.41;5014460;28;1207;-84
2022/09/20 13:27:44;;;;;;;;;;;;;;;13.20;94.17;101066.22;5016669;28;1223;-83